createdAt,value
2019-05-17T00:01:52.881Z,254.87
2019-05-17T00:06:03.193Z,260.27
2019-05-17T00:10:13.832Z,253.13
2019-05-17T00:14:24.163Z,260.63
2019-05-17T00:18:37.030Z,257.80
2019-05-17T00:22:47.705Z,265.67
2019-05-17T00:26:58.612Z,256.77
2019-05-17T00:31:09.287Z,258.57
2019-05-17T00:35:19.583Z,263.73
2019-05-17T00:39:29.907Z,263.63
2019-05-17T00:43:40.204Z,263.13
2019-05-17T00:47:50.509Z,262.90
2019-05-17T00:52:00.820Z,270.47
2019-05-17T00:56:11.310Z,272.30
2019-05-17T01:00:21.960Z,272.97
2019-05-17T01:04:32.560Z,271.83
2019-05-17T01:08:42.964Z,263.73
2019-05-17T01:12:53.400Z,264.30
2019-05-17T01:17:03.932Z,282.40
2019-05-17T01:21:14.270Z,268.30
2019-05-17T01:25:24.668Z,271.30
2019-05-17T01:29:36.295Z,257.13
2019-05-17T01:33:47.196Z,255.97
2019-05-17T01:37:57.576Z,264.80
2019-05-17T01:42:08.028Z,263.57
2019-05-17T01:46:18.923Z,264.90
2019-05-17T01:50:29.212Z,267.07
2019-05-17T01:54:39.892Z,271.10
2019-05-17T01:58:50.221Z,268.40
2019-05-17T02:03:00.566Z,257.43
2019-05-17T02:07:12.233Z,257.70
2019-05-17T02:11:22.677Z,272.20
2019-05-17T02:15:34.250Z,272.07
2019-05-17T02:19:46.443Z,276.03
2019-05-17T02:23:57.209Z,265.80
2019-05-17T02:28:07.713Z,271.00
2019-05-17T02:32:23.321Z,270.10
2019-05-17T02:36:33.278Z,268.42
2019-05-17T02:40:47.014Z,268.15
2019-05-17T02:44:57.710Z,264.00
2019-05-17T02:49:09.235Z,268.47
2019-05-17T02:53:22.722Z,274.67
2019-05-17T02:57:34.426Z,274.13
2019-05-17T03:01:44.343Z,273.87
2019-05-17T03:05:54.966Z,276.30
2019-05-17T03:10:18.310Z,273.70
2019-05-17T03:14:18.507Z,276.23
2019-05-17T03:18:28.838Z,275.00
2019-05-17T03:22:39.072Z,274.20
2019-05-17T03:26:52.394Z,273.57
2019-05-17T03:31:08.102Z,280.83
2019-05-17T03:35:16.372Z,267.20
2019-05-17T03:39:26.591Z,263.63
2019-05-17T03:43:40.187Z,278.00
2019-05-17T03:47:53.203Z,281.03
2019-05-17T03:52:03.310Z,280.33
2019-05-17T03:56:13.756Z,271.63
2019-05-17T04:00:24.442Z,276.63
2019-05-17T04:04:34.809Z,266.83
2019-05-17T04:08:45.140Z,270.97
2019-05-17T04:12:55.425Z,274.77
2019-05-17T04:17:06.868Z,276.17
2019-05-17T04:21:17.172Z,276.27
2019-05-17T04:25:27.483Z,272.40
2019-05-17T04:29:37.845Z,279.97
2019-05-17T04:33:49.730Z,272.77
2019-05-17T04:38:03.680Z,277.00
2019-05-17T04:42:13.659Z,269.90
2019-05-17T04:46:24.120Z,279.40
2019-05-17T04:50:35.085Z,277.30
2019-05-17T04:54:45.416Z,273.27
2019-05-17T04:58:55.708Z,277.90
2019-05-17T05:03:06.122Z,278.43
2019-05-17T05:07:16.532Z,285.23
2019-05-17T05:11:26.973Z,295.10
2019-05-17T05:15:43.309Z,270.60
2019-05-17T05:19:53.014Z,267.20
2019-05-17T05:24:03.785Z,284.00
2019-05-17T05:28:14.131Z,271.83
2019-05-17T05:32:24.435Z,267.07
2019-05-17T05:36:34.746Z,273.30
2019-05-17T05:40:48.327Z,281.03
2019-05-17T05:44:58.669Z,270.83
2019-05-17T05:49:09.014Z,272.87
2019-05-17T05:53:21.631Z,269.33
2019-05-17T05:57:32.173Z,264.77
2019-05-17T06:01:42.690Z,260.73
2019-05-17T06:05:52.984Z,266.03
2019-05-17T06:10:03.465Z,266.37
2019-05-17T06:14:13.890Z,269.83
2019-05-17T06:18:24.233Z,278.93
2019-05-17T06:22:36.318Z,279.73
2019-05-17T06:26:46.660Z,282.03
2019-05-17T06:30:57.067Z,277.67
2019-05-17T06:35:07.749Z,269.20
2019-05-17T06:39:19.312Z,281.53
2019-05-17T06:43:32.066Z,273.33
2019-05-17T06:47:42.658Z,275.03
2019-05-17T06:51:53.710Z,274.30
2019-05-17T06:56:05.347Z,280.97
2019-05-17T07:00:20.726Z,260.30
2019-05-17T07:04:30.002Z,276.07
2019-05-17T07:08:40.253Z,257.43
2019-05-17T07:12:55.937Z,265.90
2019-05-17T07:17:02.673Z,277.80
2019-05-17T07:21:12.994Z,254.83
2019-05-17T07:25:23.300Z,261.20
2019-05-17T07:29:33.969Z,253.63
2019-05-17T07:33:44.403Z,265.77
2019-05-17T07:37:54.838Z,259.40
2019-05-17T07:42:05.252Z,261.83
2019-05-17T07:46:15.657Z,267.67
2019-05-17T07:50:25.986Z,277.20
2019-05-17T07:54:36.280Z,262.27
2019-05-17T07:58:46.727Z,259.70
2019-05-17T08:02:59.961Z,259.53
2019-05-17T08:07:11.068Z,274.23
2019-05-17T08:11:21.771Z,263.40
2019-05-17T08:15:33.347Z,277.57
2019-05-17T08:19:43.882Z,260.03
2019-05-17T08:23:54.298Z,262.90
2019-05-17T08:28:06.176Z,259.13
2019-05-17T08:32:16.775Z,261.80
2019-05-17T08:36:29.651Z,258.50
2019-05-17T08:40:42.716Z,261.40
2019-05-17T08:44:53.030Z,252.57
2019-05-17T08:49:04.105Z,258.87
2019-05-17T08:53:16.157Z,259.30
2019-05-17T08:57:26.474Z,272.57
2019-05-17T09:01:39.192Z,253.93
2019-05-17T09:05:52.537Z,249.10
2019-05-17T09:10:01.739Z,253.67
2019-05-17T09:14:12.811Z,252.23
2019-05-17T09:18:23.266Z,255.90
2019-05-17T09:22:33.618Z,253.97
2019-05-17T09:26:44.169Z,249.67
2019-05-17T09:30:54.961Z,248.80
2019-05-17T09:35:10.081Z,247.90
2019-05-17T09:39:24.507Z,251.07
2019-05-17T09:43:40.072Z,259.15
2019-05-17T09:47:50.608Z,258.82
2019-05-17T09:52:01.101Z,265.82
2019-05-17T09:56:11.407Z,250.83
2019-05-17T10:00:22.033Z,257.62
2019-05-17T10:04:32.483Z,248.35
2019-05-17T10:08:43.230Z,247.00
2019-05-17T10:12:54.841Z,266.38
2019-05-17T10:17:05.514Z,258.87
2019-05-17T10:21:16.506Z,258.05
2019-05-17T10:25:29.370Z,256.73
2019-05-17T10:29:39.539Z,243.60
2019-05-17T10:33:50.007Z,241.23
2019-05-17T10:38:00.284Z,246.25
2019-05-17T10:42:11.072Z,256.00
2019-05-17T10:46:21.649Z,257.43
2019-05-17T10:50:32.056Z,259.32
2019-05-17T10:54:42.544Z,252.32
2019-05-17T10:58:52.884Z,251.00
2019-05-17T11:03:04.251Z,253.40
2019-05-17T11:07:14.447Z,257.98
2019-05-17T11:11:26.296Z,258.03
2019-05-17T11:15:37.872Z,251.32
2019-05-17T11:19:48.734Z,256.57
2019-05-17T11:23:59.098Z,257.07
2019-05-17T11:28:09.426Z,247.20
2019-05-17T11:32:20.558Z,258.52
2019-05-17T11:36:31.003Z,260.57
2019-05-17T11:40:43.890Z,256.50
2019-05-17T11:44:55.023Z,254.70
2019-05-17T11:49:05.384Z,255.63
2019-05-17T11:53:15.838Z,255.47
2019-05-17T11:57:27.760Z,246.30
2019-05-17T12:01:38.154Z,257.45
2019-05-17T12:05:48.601Z,248.63
2019-05-17T12:09:58.924Z,249.30
2019-05-17T12:14:09.501Z,254.55
2019-05-17T12:18:20.204Z,247.00
2019-05-17T12:22:30.739Z,253.73
2019-05-17T12:26:41.110Z,241.63
2019-05-17T12:30:51.849Z,248.10
2019-05-17T12:35:02.248Z,246.85
2019-05-17T12:39:12.978Z,240.85
2019-05-17T12:43:24.557Z,259.20
2019-05-17T12:47:34.831Z,255.47
2019-05-17T12:51:45.137Z,255.37
2019-05-17T12:55:55.597Z,244.65
2019-05-17T13:00:07.954Z,252.47
2019-05-17T13:04:18.877Z,259.37
2019-05-17T13:08:29.610Z,251.52
2019-05-17T13:12:40.050Z,252.47
2019-05-17T13:16:50.385Z,261.75
2019-05-17T13:21:00.702Z,261.23
2019-05-17T13:25:11.188Z,254.40
2019-05-17T13:29:21.524Z,249.73
2019-05-17T13:33:31.833Z,247.80
2019-05-17T13:37:42.126Z,248.40
2019-05-17T13:41:52.565Z,251.20
2019-05-17T13:46:03.137Z,253.55
2019-05-17T13:50:14.786Z,249.62
2019-05-17T13:54:25.145Z,257.05
2019-05-17T13:58:35.556Z,249.80
2019-05-17T14:02:46.978Z,254.30
2019-05-17T14:06:57.418Z,262.20
2019-05-17T14:11:07.825Z,244.80
2019-05-17T14:15:19.538Z,259.87
2019-05-17T14:19:29.928Z,246.53
2019-05-17T14:23:40.241Z,253.00
2019-05-17T14:27:51.054Z,248.30
2019-05-17T14:32:01.388Z,245.07
2019-05-17T14:36:12.295Z,246.07
2019-05-17T14:40:22.938Z,252.68
2019-05-17T14:44:34.835Z,250.95
2019-05-17T14:48:45.172Z,248.00
2019-05-17T14:52:56.047Z,249.35
2019-05-17T14:57:06.363Z,251.73
2019-05-17T15:01:16.717Z,246.72
2019-05-17T15:05:27.050Z,250.55
2019-05-17T15:09:37.431Z,252.55
2019-05-17T15:13:49.082Z,250.10
2019-05-17T15:17:59.514Z,257.12
2019-05-17T15:22:09.957Z,253.18
2019-05-17T15:26:21.239Z,252.97
2019-05-17T15:30:31.537Z,258.13
2019-05-17T15:34:42.481Z,251.45
2019-05-17T15:38:52.827Z,240.40
2019-05-17T15:43:04.782Z,254.47
2019-05-17T15:47:16.193Z,249.27
2019-05-17T15:51:26.537Z,253.07
2019-05-17T15:55:36.852Z,259.37
2019-05-17T15:59:48.943Z,246.28
2019-05-17T16:04:00.242Z,247.63
2019-05-17T16:08:10.611Z,256.98
2019-05-17T16:12:21.609Z,257.92
2019-05-17T16:16:31.881Z,250.82
2019-05-17T16:20:42.306Z,251.47
2019-05-17T16:24:53.021Z,257.98
2019-05-17T16:29:03.480Z,243.00
2019-05-17T16:33:14.774Z,249.52
2019-05-17T16:37:25.471Z,262.38
2019-05-17T16:41:37.148Z,260.40
2019-05-17T16:45:47.916Z,258.15
2019-05-17T16:49:58.369Z,258.15
2019-05-17T16:54:08.619Z,258.30
2019-05-17T16:58:18.949Z,261.27
2019-05-17T17:02:29.300Z,261.10
2019-05-17T17:06:39.719Z,252.70
2019-05-17T17:10:50.121Z,257.20
2019-05-17T17:15:00.477Z,262.32
2019-05-17T17:19:11.891Z,255.18
2019-05-17T17:23:22.339Z,245.97
2019-05-17T17:27:32.684Z,246.82
2019-05-17T17:31:43.181Z,253.40
2019-05-17T17:35:54.642Z,247.78
2019-05-17T17:40:08.846Z,252.68
2019-05-17T17:44:19.299Z,251.10
2019-05-17T17:48:29.697Z,253.52
2019-05-17T17:52:40.003Z,248.10
2019-05-17T17:56:51.011Z,241.95
2019-05-17T18:01:01.320Z,241.70
2019-05-17T18:05:11.989Z,244.15
2019-05-17T18:09:22.328Z,247.70
2019-05-17T18:13:33.209Z,247.65
2019-05-17T18:17:43.582Z,245.33
2019-05-17T18:21:55.425Z,248.82
2019-05-17T18:26:06.352Z,248.78
2019-05-17T18:30:18.836Z,250.05
2019-05-17T18:34:29.299Z,251.32
2019-05-17T18:38:40.255Z,246.30
2019-05-17T18:42:50.598Z,250.28
2019-05-17T18:47:00.988Z,260.13
2019-05-17T18:51:11.360Z,255.50
2019-05-17T18:55:21.733Z,254.23
2019-05-17T18:59:32.095Z,261.40
2019-05-17T19:03:42.519Z,262.77
2019-05-17T19:07:55.937Z,263.50
2019-05-17T19:12:07.721Z,255.13
2019-05-17T19:16:18.440Z,255.50
2019-05-17T19:20:28.847Z,263.03
2019-05-17T19:24:39.363Z,250.43
2019-05-17T19:28:51.365Z,253.77
2019-05-17T19:33:02.336Z,252.07
2019-05-17T19:37:12.674Z,258.53
2019-05-17T19:41:24.377Z,258.67
2019-05-17T19:45:34.897Z,270.73
2019-05-17T19:49:46.945Z,256.60
2019-05-17T19:53:58.260Z,265.53
2019-05-17T19:58:09.277Z,249.60
2019-05-17T20:02:19.611Z,259.53
2019-05-17T20:06:31.505Z,254.57
2019-05-17T20:10:41.974Z,264.63
2019-05-17T20:14:55.113Z,263.00
2019-05-17T20:19:05.458Z,258.40
2019-05-17T20:23:15.800Z,257.70
2019-05-17T20:27:26.950Z,263.30
2019-05-17T20:31:37.309Z,261.13
2019-05-17T20:35:48.173Z,260.30
2019-05-17T20:39:58.578Z,266.07
2019-05-17T20:44:09.516Z,256.17
2019-05-17T20:48:21.139Z,268.17
2019-05-17T20:52:32.983Z,258.47
2019-05-17T20:56:43.305Z,251.47
2019-05-17T21:00:53.714Z,260.53
2019-05-17T21:05:06.674Z,253.55
2019-05-17T21:09:17.007Z,255.17
2019-05-17T21:13:27.498Z,257.07
2019-05-17T21:17:38.751Z,255.47
2019-05-17T21:21:50.627Z,257.27
2019-05-17T21:26:00.940Z,257.40
2019-05-17T21:30:11.490Z,255.13
2019-05-17T21:34:21.800Z,263.50
2019-05-17T21:38:32.041Z,267.83
2019-05-17T21:42:44.087Z,259.60
2019-05-17T21:47:04.424Z,252.90
2019-05-17T21:51:08.286Z,263.80
2019-05-17T21:55:18.659Z,262.90
2019-05-17T21:59:29.080Z,299.73
2019-05-17T22:03:39.408Z,253.57
2019-05-17T22:07:49.740Z,246.73
2019-05-17T22:12:01.726Z,251.30
2019-05-17T22:16:19.470Z,259.43
2019-05-17T22:20:23.964Z,258.63
2019-05-17T22:24:34.241Z,251.33
2019-05-17T22:28:44.604Z,250.80
2019-05-17T22:32:54.944Z,243.50
2019-05-17T22:37:05.240Z,244.77
2019-05-17T22:41:17.528Z,253.97
2019-05-17T22:45:28.545Z,259.83
2019-05-17T22:49:38.994Z,257.30
2019-05-17T22:53:50.639Z,253.50
2019-05-17T22:58:00.983Z,255.80
2019-05-17T23:02:11.356Z,253.90
2019-05-17T23:06:22.206Z,254.80
2019-05-17T23:10:35.066Z,251.90
2019-05-17T23:14:44.499Z,258.57
2019-05-17T23:19:07.466Z,247.53
2019-05-17T23:23:17.799Z,255.67
2019-05-17T23:27:28.325Z,260.97
2019-05-17T23:31:39.305Z,257.63
2019-05-17T23:35:49.648Z,250.40
2019-05-17T23:40:00.088Z,255.33
2019-05-17T23:44:10.511Z,251.23
2019-05-17T23:48:20.847Z,272.27
2019-05-17T23:52:31.161Z,251.37
2019-05-17T23:56:42.654Z,254.40
